Time,TemperatureF,DewpointF,PressureIn,WindDirection,WindDirectionDegrees,WindSpeedMPH,WindSpeedGustMPH,Humidity,HourlyPrecipIn,Conditions,Clouds,dailyrainin,SoftwareType,DateUTC
2013-07-01 00:02:00,78.0,-99.9,29.82,WSW,251,5.0,5.0,-999,-99.99,,,-99.99,,2013-07-01 05:02:00,
2013-07-01 00:11:00,78.0,-99.9,29.82,WSW,247,5.0,5.0,-999,-99.99,,,-99.99,,2013-07-01 05:11:00,
2013-07-01 00:33:00,77.0,-99.9,29.82,WSW,255,2.0,4.0,-999,-99.99,,,-99.99,,2013-07-01 05:33:00,
2013-07-01 00:42:00,77.0,-99.9,29.82,WSW,256,3.0,4.0,-999,-99.99,,,-99.99,,2013-07-01 05:42:00,
2013-07-01 00:52:00,77.0,-99.9,29.82,West,281,2.0,4.0,-999,-99.99,,,-99.99,,2013-07-01 05:52:00,
2013-07-01 01:02:00,78.0,-99.9,29.82,West,275,2.0,3.0,-999,-99.99,,,-99.99,,2013-07-01 06:02:00,
2013-07-01 01:12:00,78.0,-99.9,29.82,West,261,3.0,3.0,-999,-99.99,,,-99.99,,2013-07-01 06:12:00,
2013-07-01 01:24:00,78.0,-99.9,29.82,West,261,3.0,3.0,-999,-99.99,,,-99.99,,2013-07-01 06:24:00,
2013-07-01 01:34:00,77.0,-99.9,29.83,West,260,9.0,11.0,-999,-99.99,,,-99.99,,2013-07-01 06:34:00,
2013-07-01 01:43:00,77.0,-99.9,29.83,SW,221,10.0,11.0,-999,-99.99,,,-99.99,,2013-07-01 06:43:00,
2013-07-01 01:53:00,76.0,-99.9,29.83,SW,223,11.0,12.0,-999,-99.99,,,-99.99,,2013-07-01 06:53:00,
2013-07-01 02:02:00,76.0,-99.9,29.83,SW,233,13.0,15.0,-999,-99.99,,,-99.99,,2013-07-01 07:02:00,
2013-07-01 02:12:00,76.0,-99.9,29.83,SW,236,11.0,15.0,-999,-99.99,,,-99.99,,2013-07-01 07:12:00,
2013-07-01 02:33:00,76.0,-99.9,29.83,WSW,254,9.0,10.0,-999,-99.99,,,-99.99,,2013-07-01 07:33:00,
2013-07-01 02:43:00,76.0,-99.9,29.83,WSW,252,10.0,11.0,-999,-99.99,,,-99.99,,2013-07-01 07:43:00,
2013-07-01 02:53:00,76.0,-99.9,29.83,WSW,253,9.0,10.0,-999,-99.99,,,-99.99,,2013-07-01 07:53:00,
2013-07-01 03:01:00,76.0,-99.9,29.83,West,265,8.0,9.0,-999,-99.99,,,-99.99,,2013-07-01 08:01:00,
2013-07-01 03:12:00,76.0,-99.9,29.83,West,264,7.0,10.0,-999,-99.99,,,-99.99,,2013-07-01 08:12:00,
2013-07-01 03:33:00,76.0,-99.9,29.83,WSW,253,7.0,9.0,-999,-99.99,,,-99.99,,2013-07-01 08:33:00,
2013-07-01 03:43:00,76.0,-99.9,29.83,WSW,251,6.0,8.0,-999,-99.99,,,-99.99,,2013-07-01 08:43:00,
2013-07-01 03:52:00,76.0,-99.9,29.83,WSW,256,8.0,10.0,-999,-99.99,,,-99.99,,2013-07-01 08:52:00,
2013-07-01 04:02:00,76.0,-99.9,29.83,West,266,7.0,9.0,-999,-99.99,,,-99.99,,2013-07-01 09:02:00,
2013-07-01 04:12:00,76.0,-99.9,29.83,West,270,7.0,10.0,-999,-99.99,,,-99.99,,2013-07-01 09:12:00,
2013-07-01 04:34:00,76.0,-99.9,29.83,West,262,9.0,9.0,-999,-99.99,,,-99.99,,2013-07-01 09:34:00,
2013-07-01 04:43:00,76.0,-99.9,29.83,West,261,8.0,9.0,-999,-99.99,,,-99.99,,2013-07-01 09:43:00,
2013-07-01 04:53:00,76.0,-99.9,29.83,West,261,8.0,9.0,-999,-99.99,,,-99.99,,2013-07-01 09:53:00,
2013-07-01 05:03:00,76.0,-99.9,29.84,West,259,7.0,8.0,-999,-99.99,,,-99.99,,2013-07-01 10:03:00,
2013-07-01 05:12:00,76.0,-99.9,29.84,West,260,7.0,7.0,-999,-99.99,,,-99.99,,2013-07-01 10:12:00,
2013-07-01 05:33:00,76.0,-99.9,29.84,West,272,7.0,8.0,-999,-99.99,,,-99.99,,2013-07-01 10:33:00,
2013-07-01 05:43:00,76.0,-99.9,29.84,West,275,6.0,8.0,-999,-99.99,,,-99.99,,2013-07-01 10:43:00,
2013-07-01 05:52:00,76.0,-99.9,29.83,West,270,6.0,7.0,-999,-99.99,,,-99.99,,2013-07-01 10:52:00,
2013-07-01 06:02:00,76.0,-99.9,29.83,West,275,6.0,8.0,-999,-99.99,,,-99.99,,2013-07-01 11:02:00,
2013-07-01 06:12:00,76.0,-99.9,29.83,West,280,6.0,8.0,-999,-99.99,,,-99.99,,2013-07-01 11:12:00,
2013-07-01 06:34:00,76.0,-99.9,29.83,WNW,288,6.0,8.0,-999,-99.99,,,-99.99,,2013-07-01 11:34:00,
2013-07-01 06:43:00,76.0,-99.9,29.84,WNW,289,8.0,9.0,-999,-99.99,,,-99.99,,2013-07-01 11:43:00,
2013-07-01 06:52:00,77.0,-99.9,29.83,WNW,287,9.0,11.0,-999,-99.99,,,-99.99,,2013-07-01 11:52:00,
2013-07-01 07:01:00,77.0,-99.9,29.83,WNW,288,8.0,9.0,-999,-99.99,,,-99.99,,2013-07-01 12:01:00,
2013-07-01 07:11:00,77.0,-99.9,29.84,WNW,288,6.0,9.0,-999,-99.99,,,-99.99,,2013-07-01 12:11:00,
2013-07-01 07:33:00,77.0,-99.9,29.85,NW,305,9.0,11.0,-999,-99.99,,,-99.99,,2013-07-01 12:33:00,
2013-07-01 07:43:00,78.0,-99.9,29.85,NW,308,9.0,12.0,-999,-99.99,,,-99.99,,2013-07-01 12:43:00,
2013-07-01 07:53:00,78.0,-99.9,29.85,NW,306,7.0,9.0,-999,-99.99,,,-99.99,,2013-07-01 12:53:00,
2013-07-01 08:02:00,79.0,-99.9,29.85,WNW,301,6.0,9.0,-999,-99.99,,,-99.99,,2013-07-01 13:02:00,
2013-07-01 08:12:00,79.0,-99.9,29.86,WNW,297,6.0,7.0,-999,-99.99,,,-99.99,,2013-07-01 13:12:00,
2013-07-01 08:33:00,80.0,-99.9,29.87,NW,326,10.0,13.0,-999,-99.99,,,-99.99,,2013-07-01 13:33:00,
2013-07-01 08:43:00,80.0,-99.9,29.87,NNW,331,10.0,13.0,-999,-99.99,,,-99.99,,2013-07-01 13:43:00,
2013-07-01 08:53:00,80.0,-99.9,29.88,NNW,335,9.0,13.0,-999,-99.99,,,-99.99,,2013-07-01 13:53:00,
2013-07-01 09:02:00,80.0,-99.9,29.88,NNW,337,8.0,10.0,-999,-99.99,,,-99.99,,2013-07-01 14:02:00,
2013-07-01 09:11:00,80.0,-99.9,29.88,NNW,334,10.0,12.0,-999,-99.99,,,-99.99,,2013-07-01 14:11:00,
2013-07-01 09:34:00,80.0,-99.9,29.89,NNW,343,9.0,12.0,-999,-99.99,,,-99.99,,2013-07-01 14:34:00,
2013-07-01 09:43:00,80.0,-99.9,29.89,NNW,342,9.0,11.0,-999,-99.99,,,-99.99,,2013-07-01 14:43:00,
2013-07-01 09:53:00,81.0,-99.9,29.89,North,5,13.0,14.0,-999,-99.99,,,-99.99,,2013-07-01 14:53:00,
2013-07-01 10:02:00,80.0,-99.9,29.89,North,6,13.0,15.0,-999,-99.99,,,-99.99,,2013-07-01 15:02:00,
2013-07-01 10:12:00,80.0,-99.9,29.89,North,4,13.0,15.0,-999,-99.99,,,-99.99,,2013-07-01 15:12:00,
2013-07-01 10:34:00,80.0,-99.9,29.89,North,5,15.0,17.0,-999,-99.99,,,-99.99,,2013-07-01 15:34:00,
2013-07-01 10:43:00,79.0,-99.9,29.90,North,7,15.0,17.0,-999,-99.99,,,-99.99,,2013-07-01 15:43:00,
2013-07-01 10:53:00,80.0,-99.9,29.90,North,8,17.0,19.0,-999,-99.99,,,-99.99,,2013-07-01 15:53:00,
2013-07-01 11:01:00,79.0,-99.9,29.90,North,8,17.0,19.0,-999,-99.99,,,-99.99,,2013-07-01 16:01:00,
2013-07-01 11:11:00,79.0,-99.9,29.90,North,7,18.0,19.0,-999,-99.99,,,-99.99,,2013-07-01 16:11:00,
2013-07-01 11:22:00,79.0,-99.9,29.90,North,7,18.0,19.0,-999,-99.99,,,-99.99,,2013-07-01 16:22:00,
2013-07-01 11:33:00,80.0,-99.9,29.90,NNE,12,15.0,17.0,-999,-99.99,,,-99.99,,2013-07-01 16:33:00,
2013-07-01 11:44:00,80.0,-99.9,29.90,NNE,15,15.0,16.0,-999,-99.99,,,-99.99,,2013-07-01 16:44:00,
2013-07-01 11:53:00,80.0,-99.9,29.90,NNE,16,15.0,17.0,-999,-99.99,,,-99.99,,2013-07-01 16:53:00,
2013-07-01 12:02:00,80.0,-99.9,29.90,NNE,18,14.0,16.0,-999,-99.99,,,-99.99,,2013-07-01 17:02:00,
2013-07-01 12:12:00,80.0,-99.9,29.90,NNE,18,13.0,14.0,-999,-99.99,,,-99.99,,2013-07-01 17:12:00,
2013-07-01 12:34:00,79.0,-99.9,29.90,NNE,21,14.0,16.0,-999,-99.99,,,-99.99,,2013-07-01 17:34:00,
2013-07-01 12:43:00,79.0,-99.9,29.90,NNE,19,15.0,17.0,-999,-99.99,,,-99.99,,2013-07-01 17:43:00,
2013-07-01 12:53:00,80.0,-99.9,29.90,NNE,18,15.0,17.0,-999,-99.99,,,-99.99,,2013-07-01 17:53:00,
2013-07-01 13:02:00,80.0,-99.9,29.90,NNE,20,14.0,16.0,-999,-99.99,,,-99.99,,2013-07-01 18:02:00,
2013-07-01 13:11:00,80.0,-99.9,29.90,NNE,22,14.0,15.0,-999,-99.99,,,-99.99,,2013-07-01 18:11:00,
2013-07-01 13:33:00,80.0,-99.9,29.90,NNE,22,13.0,15.0,-999,-99.99,,,-99.99,,2013-07-01 18:33:00,
2013-07-01 13:44:00,80.0,-99.9,29.90,NNE,24,14.0,15.0,-999,-99.99,,,-99.99,,2013-07-01 18:44:00,
2013-07-01 13:53:00,80.0,-99.9,29.89,NNE,27,13.0,15.0,-999,-99.99,,,-99.99,,2013-07-01 18:53:00,
2013-07-01 14:02:00,80.0,-99.9,29.89,NNE,26,15.0,16.0,-999,-99.99,,,-99.99,,2013-07-01 19:02:00,
2013-07-01 14:11:00,80.0,-99.9,29.89,NNE,29,14.0,17.0,-999,-99.99,,,-99.99,,2013-07-01 19:11:00,
2013-07-01 14:34:00,81.0,-99.9,29.88,NE,38,13.0,15.0,-999,-99.99,,,-99.99,,2013-07-01 19:34:00,
2013-07-01 14:44:00,81.0,-99.9,29.88,NE,39,13.0,15.0,-999,-99.99,,,-99.99,,2013-07-01 19:44:00,
2013-07-01 14:53:00,81.0,-99.9,29.88,NE,47,13.0,15.0,-999,-99.99,,,-99.99,,2013-07-01 19:53:00,
2013-07-01 15:02:00,81.0,-99.9,29.88,ENE,58,13.0,15.0,-999,-99.99,,,-99.99,,2013-07-01 20:02:00,
2013-07-01 15:11:00,81.0,-99.9,29.88,ENE,64,12.0,14.0,-999,-99.99,,,-99.99,,2013-07-01 20:11:00,
2013-07-01 15:34:00,80.0,-99.9,29.88,ENE,68,10.0,11.0,-999,-99.99,,,-99.99,,2013-07-01 20:34:00,
2013-07-01 15:43:00,80.0,-99.9,29.88,ENE,67,10.0,12.0,-999,-99.99,,,-99.99,,2013-07-01 20:43:00,
2013-07-01 15:52:00,80.0,-99.9,29.88,ENE,69,10.0,11.0,-999,-99.99,,,-99.99,,2013-07-01 20:52:00,
2013-07-01 16:02:00,80.0,-99.9,29.87,ENE,74,10.0,11.0,-999,-99.99,,,-99.99,,2013-07-01 21:02:00,
2013-07-01 16:24:00,80.0,-99.9,29.87,ENE,76,10.0,11.0,-999,-99.99,,,-99.99,,2013-07-01 21:24:00,
2013-07-01 16:34:00,80.0,-99.9,29.86,East,88,11.0,12.0,-999,-99.99,,,-99.99,,2013-07-01 21:34:00,
2013-07-01 16:44:00,80.0,-99.9,29.86,East,89,11.0,12.0,-999,-99.99,,,-99.99,,2013-07-01 21:44:00,
2013-07-01 16:53:00,80.0,-99.9,29.86,East,88,10.0,12.0,-999,-99.99,,,-99.99,,2013-07-01 21:53:00,
2013-07-01 17:01:00,80.0,-99.9,29.85,East,92,10.0,11.0,-999,-99.99,,,-99.99,,2013-07-01 22:01:00,
2013-07-01 17:12:00,80.0,-99.9,29.85,East,97,10.0,10.0,-999,-99.99,,,-99.99,,2013-07-01 22:12:00,
2013-07-01 17:24:00,80.0,-99.9,29.85,East,97,10.0,10.0,-999,-99.99,,,-99.99,,2013-07-01 22:24:00,
2013-07-01 17:33:00,80.0,-99.9,29.85,East,98,9.0,11.0,-999,-99.99,,,-99.99,,2013-07-01 22:33:00,
2013-07-01 17:43:00,80.0,-99.9,29.85,ESE,102,8.0,9.0,-999,-99.99,,,-99.99,,2013-07-01 22:43:00,
2013-07-01 17:53:00,80.0,-99.9,29.85,ESE,107,8.0,9.0,-999,-99.99,,,-99.99,,2013-07-01 22:53:00,
2013-07-01 18:02:00,80.0,-99.9,29.85,ESE,123,8.0,9.0,-999,-99.99,,,-99.99,,2013-07-01 23:02:00,
2013-07-01 18:11:00,80.0,-99.9,29.85,SE,124,7.0,9.0,-999,-99.99,,,-99.99,,2013-07-01 23:11:00,
2013-07-01 18:22:00,80.0,-99.9,29.85,SE,124,7.0,9.0,-999,-99.99,,,-99.99,,2013-07-01 23:22:00,
2013-07-01 18:33:00,80.0,-99.9,29.85,ESE,111,8.0,9.0,-999,-99.99,,,-99.99,,2013-07-01 23:33:00,
2013-07-01 18:44:00,80.0,-99.9,29.85,ESE,121,7.0,8.0,-999,-99.99,,,-99.99,,2013-07-01 23:44:00,
2013-07-01 18:53:00,80.0,-99.9,29.85,ESE,117,7.0,8.0,-999,-99.99,,,-99.99,,2013-07-01 23:53:00,
2013-07-01 19:01:00,80.0,-99.9,29.85,ESE,110,7.0,8.0,-999,-99.99,,,-99.99,,2013-07-02 00:01:00,
2013-07-01 19:12:00,80.0,-99.9,29.85,ESE,109,7.0,7.0,-999,-99.99,,,-99.99,,2013-07-02 00:12:00,
2013-07-01 19:34:00,80.0,-99.9,29.85,ESE,105,7.0,8.0,-999,-99.99,,,-99.99,,2013-07-02 00:34:00,
2013-07-01 19:43:00,80.0,-99.9,29.86,ESE,108,7.0,8.0,-999,-99.99,,,-99.99,,2013-07-02 00:43:00,
2013-07-01 19:53:00,80.0,-99.9,29.86,ESE,116,7.0,7.0,-999,-99.99,,,-99.99,,2013-07-02 00:53:00,
2013-07-01 20:01:00,80.0,-99.9,29.86,ESE,123,7.0,8.0,-999,-99.99,,,-99.99,,2013-07-02 01:01:00,
2013-07-01 20:11:00,80.0,-99.9,29.86,ESE,123,6.0,7.0,-999,-99.99,,,-99.99,,2013-07-02 01:11:00,
2013-07-01 20:33:00,79.0,-99.9,29.87,ESE,108,6.0,7.0,-999,-99.99,,,-99.99,,2013-07-02 01:33:00,
2013-07-01 20:43:00,79.0,-99.9,29.87,East,95,6.0,6.0,-999,-99.99,,,-99.99,,2013-07-02 01:43:00,
2013-07-01 20:53:00,79.0,-99.9,29.87,ENE,77,6.0,6.0,-999,-99.99,,,-99.99,,2013-07-02 01:53:00,
2013-07-01 21:02:00,79.0,-99.9,29.88,ENE,69,6.0,6.0,-999,-99.99,,,-99.99,,2013-07-02 02:02:00,
2013-07-01 21:12:00,79.0,-99.9,29.88,East,81,8.0,9.0,-999,-99.99,,,-99.99,,2013-07-02 02:12:00,
2013-07-01 21:43:00,79.0,-99.9,29.88,NE,47,4.0,5.0,-999,-99.99,,,-99.99,,2013-07-02 02:43:00,
2013-07-01 21:53:00,79.0,-99.9,29.88,ENE,64,4.0,5.0,-999,-99.99,,,-99.99,,2013-07-02 02:53:00,
2013-07-01 22:02:00,79.0,-99.9,29.88,NE,52,5.0,5.0,-999,-99.99,,,-99.99,,2013-07-02 03:02:00,
2013-07-01 22:12:00,79.0,-99.9,29.89,NE,42,5.0,6.0,-999,-99.99,,,-99.99,,2013-07-02 03:12:00,
2013-07-01 22:24:00,79.0,-99.9,29.89,NE,42,5.0,6.0,-999,-99.99,,,-99.99,,2013-07-02 03:24:00,
2013-07-01 22:33:00,79.0,-99.9,29.90,NE,45,5.0,6.0,-999,-99.99,,,-99.99,,2013-07-02 03:33:00,
2013-07-01 22:43:00,79.0,-99.9,29.91,NE,39,4.0,5.0,-999,-99.99,,,-99.99,,2013-07-02 03:43:00,
2013-07-01 22:53:00,79.0,-99.9,29.91,ENE,67,5.0,6.0,-999,-99.99,,,-99.99,,2013-07-02 03:53:00,
2013-07-01 23:02:00,79.0,-99.9,29.91,NNE,26,4.0,6.0,-999,-99.99,,,-99.99,,2013-07-02 04:02:00,
2013-07-01 23:11:00,79.0,-99.9,29.92,NNE,24,6.0,7.0,-999,-99.99,,,-99.99,,2013-07-02 04:11:00,
2013-07-01 23:22:00,79.0,-99.9,29.92,NNE,24,6.0,7.0,-999,-99.99,,,-99.99,,2013-07-02 04:22:00,
2013-07-01 23:32:00,79.0,-99.9,29.93,North,9,7.0,7.0,-999,-99.99,,,-99.99,,2013-07-02 04:32:00,
2013-07-01 23:42:00,79.0,-99.9,29.93,North,7,8.0,9.0,-999,-99.99,,,-99.99,,2013-07-02 04:42:00,
2013-07-01 23:54:00,79.0,-99.9,29.93,NNE,15,7.0,8.0,-999,-99.99,,,-99.99,,2013-07-02 04:54:00,